createdAt,value
2023-03-29T00:01:54.515Z,0.56
2023-03-29T00:04:27.820Z,0.48
2023-03-29T00:06:57.047Z,0.28
2023-03-29T00:09:26.827Z,0.23
2023-03-29T00:11:55.949Z,0.23
2023-03-29T00:14:26.669Z,0.27
2023-03-29T00:16:56.072Z,0.33
2023-03-29T00:19:25.293Z,0.32
2023-03-29T00:21:54.361Z,0.36
2023-03-29T00:24:23.973Z,0.41
2023-03-29T00:26:53.152Z,0.45
2023-03-29T00:29:22.237Z,0.44
2023-03-29T00:31:54.022Z,0.39
2023-03-29T00:34:24.576Z,0.41
2023-03-29T00:36:58.077Z,0.36
2023-03-29T00:39:27.990Z,0.34
2023-03-29T00:41:57.824Z,0.34
2023-03-29T00:45:18.876Z,0.34
2023-03-29T00:48:02.247Z,0.28
2023-03-29T00:50:43.534Z,0.24
2023-03-29T00:53:30.798Z,0.25
2023-03-29T00:56:22.792Z,0.28
2023-03-29T00:59:12.317Z,0.32
2023-03-29T01:01:55.099Z,0.29
2023-03-29T01:04:46.110Z,0.30
2023-03-29T01:07:23.846Z,0.22
2023-03-29T01:10:02.307Z,0.14
2023-03-29T01:12:37.635Z,0.02
2023-03-29T01:15:10.893Z,-0.08
2023-03-29T01:17:43.506Z,-0.21
2023-03-29T01:20:14.358Z,-0.35
2023-03-29T01:22:51.415Z,-0.41
2023-03-29T01:25:40.719Z,-0.45
2023-03-29T01:28:14.575Z,-0.42
2023-03-29T01:31:08.578Z,-0.42
2023-03-29T01:33:44.477Z,-0.44
2023-03-29T01:36:27.174Z,-0.42
2023-03-29T01:38:59.420Z,-0.53
2023-03-29T01:41:37.815Z,-0.57
2023-03-29T01:44:21.135Z,-0.58
2023-03-29T01:47:26.062Z,-0.61
2023-03-29T01:50:27.858Z,-0.64
2023-03-29T01:53:01.591Z,-0.69
2023-03-29T01:55:38.548Z,-0.74
2023-03-29T01:58:10.964Z,-0.79
2023-03-29T02:00:42.228Z,-0.82
2023-03-29T02:03:15.047Z,-0.84
2023-03-29T02:05:46.032Z,-0.89
2023-03-29T02:08:17.546Z,-0.90
2023-03-29T02:10:47.040Z,-0.91
2023-03-29T02:13:18.101Z,-0.96
2023-03-29T02:15:47.712Z,-0.98
2023-03-29T02:18:18.591Z,-0.98
2023-03-29T02:20:50.787Z,-1.02
2023-03-29T02:23:36.373Z,-1.06
2023-03-29T02:26:06.772Z,-1.08
2023-03-29T02:28:36.261Z,-1.15
2023-03-29T02:31:29.473Z,-1.19
2023-03-29T02:34:08.859Z,-1.28
2023-03-29T02:36:40.635Z,-1.33
2023-03-29T02:39:14.004Z,-1.31
2023-03-29T02:41:47.165Z,-1.29
2023-03-29T02:44:28.841Z,-1.28
2023-03-29T02:47:14.198Z,-1.29
2023-03-29T02:49:44.205Z,-1.29
2023-03-29T02:52:17.947Z,-1.33
2023-03-29T02:54:50.394Z,-1.34
2023-03-29T02:57:26.738Z,-1.33
2023-03-29T02:59:58.248Z,-1.34
2023-03-29T03:02:27.932Z,-1.33
2023-03-29T03:04:59.263Z,-1.36
2023-03-29T03:07:28.862Z,-1.33
2023-03-29T03:09:58.686Z,-1.30
2023-03-29T03:12:27.850Z,-1.31
2023-03-29T03:14:56.904Z,-1.28
2023-03-29T03:17:26.023Z,-1.33
2023-03-29T03:19:55.161Z,-1.33
2023-03-29T03:22:24.900Z,-1.30
2023-03-29T03:24:54.089Z,-1.31
2023-03-29T03:27:24.103Z,-1.28
2023-03-29T03:29:53.415Z,-1.33
2023-03-29T03:32:51.342Z,-1.29
2023-03-29T03:35:23.795Z,-1.27
2023-03-29T03:37:52.927Z,-1.29
2023-03-29T03:40:22.651Z,-1.26
2023-03-29T03:42:52.016Z,-1.26
2023-03-29T03:45:21.220Z,-1.26
2023-03-29T03:48:10.614Z,-1.21
2023-03-29T03:50:52.813Z,-1.18
2023-03-29T03:53:23.607Z,-1.17
2023-03-29T03:56:22.015Z,-1.13
2023-03-29T03:59:09.347Z,-1.15
2023-03-29T04:02:17.088Z,-1.18
2023-03-29T04:04:47.738Z,-1.19
2023-03-29T04:07:20.442Z,-1.19
2023-03-29T04:10:06.402Z,-1.21
2023-03-29T04:12:39.361Z,-1.23
2023-03-29T04:15:10.595Z,-1.20
2023-03-29T04:17:43.446Z,-1.19
2023-03-29T04:20:41.854Z,-1.20
2023-03-29T04:23:12.438Z,-1.23
2023-03-29T04:25:42.548Z,-1.23
2023-03-29T04:28:32.555Z,-1.21
2023-03-29T04:31:15.728Z,-1.22
2023-03-29T04:34:07.524Z,-1.19
2023-03-29T04:36:36.815Z,-1.18
2023-03-29T04:39:09.526Z,-1.11
2023-03-29T04:41:39.183Z,-1.08
2023-03-29T04:44:18.276Z,-0.99
2023-03-29T04:46:47.439Z,-0.89
2023-03-29T04:52:45.944Z,-0.68
2023-03-29T04:55:15.369Z,-0.61
2023-03-29T04:57:59.684Z,-0.54
2023-03-29T05:00:35.081Z,-0.50
2023-03-29T05:03:07.620Z,-0.42
2023-03-29T05:05:41.687Z,-0.39
2023-03-29T05:08:10.900Z,-0.39
2023-03-29T05:10:53.153Z,-0.33
2023-03-29T05:13:22.385Z,-0.26
2023-03-29T05:15:51.997Z,-0.14
2023-03-29T05:18:22.257Z,0.05
2023-03-29T05:20:53.125Z,0.23
2023-03-29T05:23:24.095Z,0.36
2023-03-29T05:26:14.638Z,0.41
2023-03-29T05:28:51.901Z,0.43
2023-03-29T05:31:21.346Z,0.40
2023-03-29T05:33:54.554Z,0.51
2023-03-29T05:36:24.801Z,0.61
2023-03-29T05:38:55.113Z,0.72
2023-03-29T05:41:25.894Z,0.79
2023-03-29T05:44:13.664Z,0.78
2023-03-29T05:46:45.170Z,0.76
2023-03-29T05:49:18.678Z,0.82
2023-03-29T05:52:06.792Z,0.83
2023-03-29T05:54:37.068Z,0.96
2023-03-29T05:57:08.500Z,0.99
2023-03-29T05:59:38.627Z,1.09
2023-03-29T06:02:08.186Z,1.17
2023-03-29T06:04:41.884Z,1.36
2023-03-29T06:07:38.383Z,1.51
2023-03-29T06:10:18.047Z,1.64
2023-03-29T06:12:51.736Z,1.74
2023-03-29T06:15:24.414Z,1.89
2023-03-29T06:17:59.339Z,2.07
2023-03-29T06:20:28.802Z,2.30
2023-03-29T06:23:04.235Z,2.41
2023-03-29T06:25:34.231Z,2.56
2023-03-29T06:28:04.357Z,2.64
2023-03-29T06:30:33.795Z,2.83
2023-03-29T06:33:03.337Z,3.03
2023-03-29T06:35:58.857Z,3.35
2023-03-29T06:38:31.096Z,3.64
2023-03-29T06:41:18.496Z,3.98
2023-03-29T06:44:10.767Z,4.20
2023-03-29T06:46:52.207Z,4.47
2023-03-29T06:49:21.895Z,4.63
2023-03-29T06:52:23.211Z,4.87
2023-03-29T06:54:53.421Z,5.05
2023-03-29T06:57:22.817Z,5.15
2023-03-29T06:59:53.281Z,5.34
2023-03-29T07:02:29.252Z,5.47
2023-03-29T07:05:13.623Z,5.77
2023-03-29T07:08:05.524Z,6.11
2023-03-29T07:11:01.504Z,6.37
2023-03-29T07:13:33.977Z,6.51
2023-03-29T07:16:07.057Z,6.57
2023-03-29T07:18:51.279Z,6.52
2023-03-29T07:21:43.237Z,6.58
2023-03-29T07:24:13.008Z,6.63
2023-03-29T07:26:52.153Z,6.67
2023-03-29T07:29:26.533Z,6.55
2023-03-29T07:31:56.302Z,6.60
2023-03-29T07:34:43.545Z,6.77
2023-03-29T07:37:34.360Z,6.94
2023-03-29T07:40:12.818Z,7.05
2023-03-29T07:43:00.202Z,7.17
2023-03-29T07:45:33.382Z,7.22
2023-03-29T07:48:07.184Z,7.20
2023-03-29T07:51:03.226Z,7.17
2023-03-29T07:53:40.596Z,7.12
2023-03-29T07:56:23.790Z,7.06
2023-03-29T07:59:02.180Z,7.04
2023-03-29T08:01:31.762Z,7.06
2023-03-29T08:04:00.910Z,7.02
2023-03-29T08:06:56.048Z,7.22
2023-03-29T08:09:32.389Z,7.45
2023-03-29T08:12:01.644Z,7.30
2023-03-29T08:14:37.087Z,7.41
2023-03-29T08:17:12.816Z,7.19
2023-03-29T08:19:50.906Z,7.02
2023-03-29T08:22:23.627Z,7.22
2023-03-29T08:25:08.736Z,7.43
2023-03-29T08:27:43.486Z,7.50
2023-03-29T08:30:14.993Z,7.77
2023-03-29T08:32:45.270Z,7.99
2023-03-29T08:35:16.376Z,8.08
2023-03-29T08:37:54.491Z,7.96
2023-03-29T08:40:27.267Z,7.72
2023-03-29T08:43:38.960Z,8.00
2023-03-29T08:46:23.198Z,8.20
2023-03-29T08:49:02.786Z,8.28
2023-03-29T08:51:40.820Z,8.51
2023-03-29T08:54:21.909Z,8.72
2023-03-29T08:57:28.212Z,8.69
2023-03-29T09:00:07.062Z,8.57
2023-03-29T09:02:42.432Z,8.64
2023-03-29T09:05:20.600Z,8.91
2023-03-29T09:08:13.557Z,9.41
2023-03-29T09:10:48.747Z,9.54
2023-03-29T09:13:27.071Z,9.13
2023-03-29T09:16:17.550Z,8.56
2023-03-29T09:19:06.363Z,8.73
2023-03-29T09:21:46.665Z,8.74
2023-03-29T09:24:52.159Z,8.99
2023-03-29T09:27:37.215Z,9.24
2023-03-29T09:30:42.823Z,9.33
2023-03-29T09:33:28.771Z,9.40
2023-03-29T09:36:34.781Z,9.23
2023-03-29T09:39:04.374Z,9.06
2023-03-29T09:41:44.181Z,9.09
2023-03-29T09:44:30.376Z,9.02
2023-03-29T09:47:32.317Z,8.94
2023-03-29T09:50:31.100Z,9.06
2023-03-29T09:53:05.116Z,9.22
2023-03-29T09:55:40.690Z,9.23
2023-03-29T09:58:27.570Z,9.22
2023-03-29T10:00:59.562Z,9.47
2023-03-29T10:03:31.204Z,9.79
2023-03-29T10:06:12.241Z,9.61
2023-03-29T10:08:50.119Z,9.18
2023-03-29T10:11:29.805Z,9.04
2023-03-29T10:14:03.459Z,9.09
2023-03-29T10:16:41.374Z,9.11
2023-03-29T10:19:35.043Z,9.17
2023-03-29T10:22:07.697Z,9.19
2023-03-29T10:24:36.910Z,9.18
2023-03-29T10:27:11.745Z,9.07
2023-03-29T10:29:42.555Z,8.87
2023-03-29T10:32:17.324Z,8.91
2023-03-29T10:34:47.880Z,8.95
2023-03-29T10:37:19.598Z,8.90
2023-03-29T10:39:48.984Z,8.77
2023-03-29T10:42:20.397Z,8.79
2023-03-29T10:44:56.159Z,8.75
2023-03-29T10:47:26.914Z,8.54
2023-03-29T10:50:01.558Z,8.40
2023-03-29T10:52:30.748Z,8.26
2023-03-29T10:55:00.454Z,8.36
2023-03-29T10:58:09.708Z,8.35
2023-03-29T11:00:56.284Z,8.41
2023-03-29T11:03:59.766Z,8.35
2023-03-29T11:06:37.885Z,8.29
2023-03-29T11:09:20.575Z,8.32
2023-03-29T11:12:21.677Z,8.12
2023-03-29T11:15:22.258Z,8.15
2023-03-29T11:17:54.413Z,8.23
2023-03-29T11:20:23.454Z,8.33
2023-03-29T11:23:01.721Z,8.53
2023-03-29T11:25:52.034Z,8.76
2023-03-29T11:28:24.380Z,9.01
2023-03-29T11:31:01.597Z,9.25
2023-03-29T11:33:49.619Z,9.65
2023-03-29T11:36:28.018Z,10.13
2023-03-29T11:39:41.764Z,10.63
2023-03-29T11:42:19.083Z,10.91
2023-03-29T11:44:54.765Z,11.18
2023-03-29T11:47:31.693Z,11.44
2023-03-29T11:50:19.636Z,11.90
2023-03-29T11:52:56.374Z,12.16
2023-03-29T11:55:29.141Z,12.34
2023-03-29T11:58:12.881Z,12.65
2023-03-29T12:00:55.882Z,13.02
2023-03-29T12:03:47.103Z,12.78
2023-03-29T12:06:37.856Z,12.67
2023-03-29T12:09:37.695Z,12.49
2023-03-29T12:12:13.561Z,12.85
2023-03-29T12:14:53.021Z,13.42
2023-03-29T12:17:30.155Z,13.73
2023-03-29T12:20:10.634Z,13.56
2023-03-29T12:22:43.363Z,13.75
2023-03-29T12:25:18.799Z,13.78
2023-03-29T12:27:57.759Z,13.90
2023-03-29T12:30:48.139Z,13.90
2023-03-29T12:33:17.627Z,13.66
2023-03-29T12:35:59.078Z,13.48
2023-03-29T12:39:00.756Z,13.19
2023-03-29T12:42:17.756Z,13.13
2023-03-29T12:45:06.360Z,13.08
2023-03-29T12:47:43.222Z,12.72
2023-03-29T12:50:46.103Z,12.61
2023-03-29T12:53:26.604Z,12.58
2023-03-29T12:56:08.758Z,12.58
2023-03-29T12:58:38.736Z,12.58
2023-03-29T13:01:33.119Z,12.74
2023-03-29T13:04:04.104Z,12.59
2023-03-29T13:06:53.647Z,12.50
2023-03-29T13:09:30.044Z,12.72
2023-03-29T13:12:13.171Z,12.83
2023-03-29T13:14:45.313Z,13.14
2023-03-29T13:17:48.250Z,13.81
2023-03-29T13:20:53.358Z,14.78
2023-03-29T13:23:46.005Z,15.29
2023-03-29T13:26:36.692Z,15.75
2023-03-29T13:29:14.704Z,16.44
2023-03-29T13:31:56.865Z,17.14
2023-03-29T13:34:48.477Z,17.62
2023-03-29T13:37:54.809Z,18.44
2023-03-29T13:40:58.414Z,19.65
2023-03-29T13:43:33.655Z,20.17
2023-03-29T13:46:06.898Z,19.28
2023-03-29T13:48:38.811Z,18.18
2023-03-29T13:51:13.971Z,17.48
2023-03-29T13:53:51.938Z,16.28
2023-03-29T13:56:51.200Z,14.85
2023-03-29T13:59:30.201Z,13.87
2023-03-29T14:02:02.904Z,13.26
2023-03-29T14:04:44.002Z,12.97
2023-03-29T14:07:15.039Z,12.78
2023-03-29T14:09:46.317Z,12.72
2023-03-29T14:12:16.766Z,12.69
2023-03-29T14:14:58.356Z,12.90
2023-03-29T14:17:29.112Z,13.29
2023-03-29T14:20:00.675Z,13.21
2023-03-29T14:22:33.716Z,13.13
2023-03-29T14:25:11.894Z,13.19
2023-03-29T14:27:42.042Z,13.13
2023-03-29T14:30:20.213Z,12.93
2023-03-29T14:32:50.685Z,12.98
2023-03-29T14:35:20.913Z,13.18
2023-03-29T14:37:50.209Z,13.15
2023-03-29T14:40:20.909Z,13.25
2023-03-29T14:42:51.236Z,13.46
2023-03-29T14:45:23.437Z,13.73
2023-03-29T14:47:53.055Z,13.73
2023-03-29T14:50:31.011Z,13.59
2023-03-29T14:53:01.765Z,13.43
2023-03-29T14:55:32.049Z,13.23
2023-03-29T14:58:01.309Z,13.00
2023-03-29T15:00:39.253Z,13.15
2023-03-29T15:03:16.349Z,13.17
2023-03-29T15:06:04.614Z,13.22
2023-03-29T15:08:37.814Z,12.97
2023-03-29T15:11:26.600Z,12.64
2023-03-29T15:14:03.116Z,12.32
2023-03-29T15:16:33.573Z,12.05
2023-03-29T15:19:03.065Z,11.77
2023-03-29T15:21:35.069Z,11.51
2023-03-29T15:24:04.993Z,11.27
2023-03-29T15:26:37.488Z,11.09
2023-03-29T15:29:08.236Z,10.91
2023-03-29T15:31:39.705Z,10.72
2023-03-29T15:34:12.919Z,10.58
2023-03-29T15:36:45.310Z,10.35
2023-03-29T15:39:17.086Z,10.19
2023-03-29T15:41:49.283Z,10.04
2023-03-29T15:44:42.793Z,9.83
2023-03-29T15:47:13.369Z,9.71
2023-03-29T15:49:42.448Z,9.62
2023-03-29T15:52:11.767Z,9.56
2023-03-29T15:54:41.240Z,9.50
2023-03-29T15:57:15.859Z,9.45
2023-03-29T15:59:45.467Z,9.38
2023-03-29T16:02:16.387Z,9.31
2023-03-29T16:04:45.926Z,9.30
2023-03-29T16:07:17.108Z,9.29
2023-03-29T16:09:46.833Z,9.28
2023-03-29T16:12:16.434Z,9.28
2023-03-29T16:14:45.750Z,9.22
2023-03-29T16:17:15.939Z,9.16
2023-03-29T16:19:45.086Z,9.09
2023-03-29T16:22:14.179Z,9.05
2023-03-29T16:24:43.851Z,8.97
2023-03-29T16:27:13.021Z,8.86
2023-03-29T16:29:42.142Z,8.76
2023-03-29T16:32:11.446Z,8.71
2023-03-29T16:34:41.528Z,8.66
2023-03-29T16:37:11.017Z,8.68
2023-03-29T16:39:40.545Z,8.68
2023-03-29T16:42:11.372Z,8.72
2023-03-29T16:44:40.720Z,8.67
2023-03-29T16:47:12.137Z,8.59
2023-03-29T16:49:42.995Z,8.49
2023-03-29T16:52:13.432Z,8.40
2023-03-29T16:54:42.646Z,8.32
2023-03-29T16:57:11.824Z,8.22
2023-03-29T16:59:42.348Z,8.05
2023-03-29T17:02:11.404Z,7.90
2023-03-29T17:04:40.809Z,7.78
2023-03-29T17:07:09.974Z,7.69
2023-03-29T17:09:39.732Z,7.62
2023-03-29T17:12:09.036Z,7.63
2023-03-29T17:14:38.300Z,7.58
2023-03-29T17:17:08.064Z,7.54
2023-03-29T17:19:37.286Z,7.54
2023-03-29T17:22:06.544Z,7.49
2023-03-29T17:24:35.673Z,7.46
2023-03-29T17:27:04.782Z,7.45
2023-03-29T17:29:33.906Z,7.45
2023-03-29T17:32:02.984Z,7.42
2023-03-29T17:34:33.069Z,7.43
2023-03-29T17:37:03.693Z,7.43
2023-03-29T17:39:35.079Z,7.42
2023-03-29T17:42:05.682Z,7.40
2023-03-29T17:44:34.832Z,7.34
2023-03-29T17:47:04.148Z,7.32
2023-03-29T17:49:33.299Z,7.33
2023-03-29T17:52:02.654Z,7.33
2023-03-29T17:54:32.027Z,7.37
2023-03-29T17:57:01.198Z,7.36
2023-03-29T17:59:30.383Z,7.35
2023-03-29T18:02:02.597Z,7.32
2023-03-29T18:04:33.325Z,7.29
2023-03-29T18:07:02.541Z,7.25
2023-03-29T18:09:31.758Z,7.20
2023-03-29T18:12:00.951Z,7.07
2023-03-29T18:14:30.386Z,6.96
2023-03-29T18:16:59.450Z,6.80
2023-03-29T18:19:28.666Z,6.72
2023-03-29T18:21:57.889Z,6.58
2023-03-29T18:24:27.514Z,6.45
2023-03-29T18:26:56.672Z,6.35
2023-03-29T18:29:25.971Z,6.28
2023-03-29T18:31:55.143Z,6.19
2023-03-29T18:34:24.392Z,6.10
2023-03-29T18:36:53.696Z,5.96
2023-03-29T18:39:22.882Z,5.82
2023-03-29T18:41:52.074Z,5.76
2023-03-29T18:44:22.742Z,5.67
2023-03-29T18:46:52.035Z,5.49
2023-03-29T18:49:21.482Z,5.54
2023-03-29T18:51:50.546Z,5.55
2023-03-29T18:54:19.867Z,5.52
2023-03-29T18:56:49.032Z,5.46
2023-03-29T18:59:18.536Z,5.38
2023-03-29T19:01:47.764Z,5.32
2023-03-29T19:04:16.948Z,5.19
2023-03-29T19:06:46.218Z,5.09
2023-03-29T19:09:15.379Z,4.97
2023-03-29T19:11:47.861Z,4.88
2023-03-29T19:14:17.482Z,4.80
2023-03-29T19:16:46.593Z,4.77
2023-03-29T19:19:15.670Z,4.70
2023-03-29T19:21:49.560Z,4.70
2023-03-29T19:24:19.427Z,4.72
2023-03-29T19:26:50.158Z,4.73
2023-03-29T19:29:19.348Z,4.73
2023-03-29T19:31:48.451Z,4.73
2023-03-29T19:34:21.098Z,4.70
2023-03-29T19:36:51.560Z,4.69
2023-03-29T19:39:21.189Z,4.61
2023-03-29T19:41:50.303Z,4.53
2023-03-29T19:44:20.217Z,4.50
2023-03-29T19:46:50.512Z,4.45
2023-03-29T19:49:19.738Z,4.35
2023-03-29T19:51:48.882Z,4.20
2023-03-29T19:54:17.952Z,4.09
2023-03-29T19:56:47.207Z,3.99
2023-03-29T19:59:17.687Z,3.98
2023-03-29T20:01:51.258Z,3.95
2023-03-29T20:04:22.826Z,3.89
2023-03-29T20:06:52.135Z,3.79
2023-03-29T20:09:21.322Z,3.85
2023-03-29T20:11:50.553Z,3.94
2023-03-29T20:14:19.680Z,4.05
2023-03-29T20:16:52.406Z,4.14
2023-03-29T20:19:25.406Z,4.24
2023-03-29T20:21:58.895Z,4.33
2023-03-29T20:24:28.068Z,4.44
2023-03-29T20:26:57.124Z,4.50
2023-03-29T20:29:27.425Z,4.58
2023-03-29T20:31:58.234Z,4.61
2023-03-29T20:34:27.600Z,4.62
2023-03-29T20:37:00.950Z,4.63
2023-03-29T20:39:31.478Z,4.62
2023-03-29T20:42:00.619Z,4.62
2023-03-29T20:44:31.565Z,4.65
2023-03-29T20:47:06.673Z,4.72
2023-03-29T20:49:37.318Z,4.76
2023-03-29T20:52:10.685Z,4.78
2023-03-29T20:54:39.857Z,4.83
2023-03-29T20:57:11.837Z,4.84
2023-03-29T20:59:41.668Z,4.90
2023-03-29T21:02:17.388Z,4.89
2023-03-29T21:04:51.927Z,4.85
2023-03-29T21:07:21.725Z,4.83
2023-03-29T21:09:51.040Z,4.78
2023-03-29T21:12:20.323Z,4.72
2023-03-29T21:14:49.607Z,4.72
2023-03-29T21:17:19.464Z,4.72
2023-03-29T21:19:48.726Z,4.73
2023-03-29T21:22:18.297Z,4.75
2023-03-29T21:24:47.414Z,4.75
2023-03-29T21:27:16.593Z,4.79
2023-03-29T21:29:45.734Z,4.76
2023-03-29T21:32:14.811Z,4.76
2023-03-29T21:34:44.038Z,4.84
2023-03-29T21:37:15.159Z,4.87
2023-03-29T21:39:44.531Z,4.87
2023-03-29T21:42:13.694Z,4.87
2023-03-29T21:44:43.076Z,4.86
2023-03-29T21:47:12.303Z,4.89
2023-03-29T21:49:41.605Z,4.91
2023-03-29T21:52:10.866Z,4.94
2023-03-29T21:54:39.865Z,4.91
2023-03-29T21:57:09.116Z,4.90
2023-03-29T21:59:38.196Z,4.91
2023-03-29T22:02:07.377Z,4.95
2023-03-29T22:04:37.633Z,4.94
2023-03-29T22:07:10.667Z,4.95
2023-03-29T22:09:42.358Z,4.92
2023-03-29T22:12:12.113Z,4.94
2023-03-29T22:14:41.185Z,4.95
2023-03-29T22:17:10.333Z,4.94
2023-03-29T22:19:40.083Z,4.94
2023-03-29T22:22:13.770Z,4.91
2023-03-29T22:24:43.309Z,4.86
2023-03-29T22:27:12.421Z,4.85
2023-03-29T22:29:41.509Z,4.84
2023-03-29T22:32:10.644Z,4.81
2023-03-29T22:34:40.180Z,4.82
2023-03-29T22:37:09.309Z,4.87
2023-03-29T22:39:38.331Z,4.88
2023-03-29T22:42:07.440Z,4.91
2023-03-29T22:44:36.535Z,4.94
2023-03-29T22:47:05.698Z,4.95
2023-03-29T22:49:34.804Z,4.94
2023-03-29T22:52:04.499Z,4.91
2023-03-29T22:54:33.566Z,4.91
2023-03-29T22:57:02.664Z,4.95
2023-03-29T22:59:32.146Z,5.04
2023-03-29T23:02:01.384Z,5.04
2023-03-29T23:04:31.293Z,5.09
2023-03-29T23:07:00.914Z,5.16
2023-03-29T23:09:30.092Z,5.16
2023-03-29T23:11:59.538Z,5.14
2023-03-29T23:14:28.592Z,5.12
2023-03-29T23:16:58.246Z,5.09
2023-03-29T23:19:27.500Z,5.09
2023-03-29T23:21:56.559Z,5.06
2023-03-29T23:24:25.609Z,4.98
2023-03-29T23:26:55.293Z,4.91
2023-03-29T23:29:26.331Z,4.76
2023-03-29T23:31:56.859Z,4.61
2023-03-29T23:34:26.035Z,4.45
2023-03-29T23:36:55.277Z,4.33
2023-03-29T23:39:25.165Z,4.25
2023-03-29T23:41:54.232Z,4.11
2023-03-29T23:44:23.448Z,3.98
2023-03-29T23:46:52.547Z,3.90
2023-03-29T23:49:22.858Z,3.77
2023-03-29T23:51:51.980Z,3.74
2023-03-29T23:54:21.103Z,3.66
2023-03-29T23:56:50.255Z,3.62
2023-03-29T23:59:19.438Z,3.56
